sensor_id;sensor_type;location;lat;lon;timestamp;P1;durP1;ratioP1;P2;durP2;ratioP2
63818;SDS011;49970;54.976;73.248;2023-05-29T00:01:25;25.75;;;11.77;;
63818;SDS011;49970;54.976;73.248;2023-05-29T00:03:52;32.90;;;11.85;;
63818;SDS011;49970;54.976;73.248;2023-05-29T00:06:19;25.85;;;12.23;;
63818;SDS011;49970;54.976;73.248;2023-05-29T00:08:45;34.35;;;12.73;;
63818;SDS011;49970;54.976;73.248;2023-05-29T00:11:12;26.23;;;12.32;;
63818;SDS011;49970;54.976;73.248;2023-05-29T00:13:38;20.92;;;11.68;;
63818;SDS011;49970;54.976;73.248;2023-05-29T00:16:06;24.50;;;10.35;;
63818;SDS011;49970;54.976;73.248;2023-05-29T00:18:33;32.72;;;11.50;;
63818;SDS011;49970;54.976;73.248;2023-05-29T00:21:00;29.88;;;9.98;;
63818;SDS011;49970;54.976;73.248;2023-05-29T00:23:27;27.60;;;8.43;;
63818;SDS011;49970;54.976;73.248;2023-05-29T00:25:53;19.08;;;7.32;;
63818;SDS011;49970;54.976;73.248;2023-05-29T00:28:20;20.60;;;8.60;;
63818;SDS011;49970;54.976;73.248;2023-05-29T00:30:46;13.65;;;7.88;;
63818;SDS011;49970;54.976;73.248;2023-05-29T00:33:12;23.48;;;7.38;;
63818;SDS011;49970;54.976;73.248;2023-05-29T00:35:58;11.68;;;6.85;;
63818;SDS011;49970;54.976;73.248;2023-05-29T00:38:24;17.95;;;7.05;;
63818;SDS011;49970;54.976;73.248;2023-05-29T00:40:51;22.13;;;6.43;;
63818;SDS011;49970;54.976;73.248;2023-05-29T00:43:17;21.40;;;7.00;;
63818;SDS011;49970;54.976;73.248;2023-05-29T00:45:43;19.95;;;6.78;;
63818;SDS011;49970;54.976;73.248;2023-05-29T00:48:10;23.50;;;6.53;;
63818;SDS011;49970;54.976;73.248;2023-05-29T00:50:37;19.95;;;6.60;;
63818;SDS011;49970;54.976;73.248;2023-05-29T00:53:03;24.45;;;7.45;;
63818;SDS011;49970;54.976;73.248;2023-05-29T00:55:30;29.75;;;7.57;;
63818;SDS011;49970;54.976;73.248;2023-05-29T00:57:57;13.15;;;7.45;;
63818;SDS011;49970;54.976;73.248;2023-05-29T01:00:23;27.00;;;6.82;;
63818;SDS011;49970;54.976;73.248;2023-05-29T01:02:50;38.28;;;6.93;;
63818;SDS011;49970;54.976;73.248;2023-05-29T01:05:18;40.85;;;8.30;;
63818;SDS011;49970;54.976;73.248;2023-05-29T01:07:45;43.15;;;7.38;;
63818;SDS011;49970;54.976;73.248;2023-05-29T01:10:11;21.58;;;7.13;;
63818;SDS011;49970;54.976;73.248;2023-05-29T01:12:40;23.90;;;7.30;;
63818;SDS011;49970;54.976;73.248;2023-05-29T01:18:16;22.13;;;7.65;;
63818;SDS011;49970;54.976;73.248;2023-05-29T01:26:11;39.83;;;6.85;;
63818;SDS011;49970;54.976;73.248;2023-05-29T01:28:48;54.80;;;7.35;;
63818;SDS011;49970;54.976;73.248;2023-05-29T01:31:20;56.83;;;7.63;;
63818;SDS011;49970;54.976;73.248;2023-05-29T01:33:56;35.70;;;7.47;;
63818;SDS011;49970;54.976;73.248;2023-05-29T01:36:25;36.80;;;6.82;;
63818;SDS011;49970;54.976;73.248;2023-05-29T01:38:52;24.17;;;6.05;;
63818;SDS011;49970;54.976;73.248;2023-05-29T01:41:20;29.85;;;6.47;;
63818;SDS011;49970;54.976;73.248;2023-05-29T01:43:48;30.50;;;5.68;;
63818;SDS011;49970;54.976;73.248;2023-05-29T01:46:17;15.30;;;5.38;;
63818;SDS011;49970;54.976;73.248;2023-05-29T01:48:45;29.60;;;5.88;;
63818;SDS011;49970;54.976;73.248;2023-05-29T01:51:12;27.55;;;5.72;;
63818;SDS011;49970;54.976;73.248;2023-05-29T01:53:39;16.77;;;6.38;;
63818;SDS011;49970;54.976;73.248;2023-05-29T01:56:09;16.70;;;5.05;;
63818;SDS011;49970;54.976;73.248;2023-05-29T01:58:36;18.45;;;5.05;;
63818;SDS011;49970;54.976;73.248;2023-05-29T02:01:03;15.80;;;5.38;;
63818;SDS011;49970;54.976;73.248;2023-05-29T02:03:32;17.27;;;5.80;;
63818;SDS011;49970;54.976;73.248;2023-05-29T02:05:59;21.38;;;4.50;;
63818;SDS011;49970;54.976;73.248;2023-05-29T02:08:26;21.38;;;6.35;;
63818;SDS011;49970;54.976;73.248;2023-05-29T02:10:53;25.90;;;5.15;;
63818;SDS011;49970;54.976;73.248;2023-05-29T02:13:19;14.77;;;5.47;;
63818;SDS011;49970;54.976;73.248;2023-05-29T02:15:46;22.35;;;4.68;;
63818;SDS011;49970;54.976;73.248;2023-05-29T02:18:14;23.15;;;4.47;;
63818;SDS011;49970;54.976;73.248;2023-05-29T02:20:44;31.33;;;4.25;;
63818;SDS011;49970;54.976;73.248;2023-05-29T02:23:16;20.17;;;4.90;;
63818;SDS011;49970;54.976;73.248;2023-05-29T02:25:43;15.27;;;3.85;;
63818;SDS011;49970;54.976;73.248;2023-05-29T02:28:10;23.48;;;5.00;;
63818;SDS011;49970;54.976;73.248;2023-05-29T02:30:36;32.63;;;4.13;;
63818;SDS011;49970;54.976;73.248;2023-05-29T02:33:02;26.48;;;4.60;;
63818;SDS011;49970;54.976;73.248;2023-05-29T02:35:29;10.07;;;3.72;;
63818;SDS011;49970;54.976;73.248;2023-05-29T02:37:56;25.00;;;3.90;;
63818;SDS011;49970;54.976;73.248;2023-05-29T02:40:22;9.02;;;3.90;;
63818;SDS011;49970;54.976;73.248;2023-05-29T02:42:49;11.90;;;3.38;;
63818;SDS011;49970;54.976;73.248;2023-05-29T02:45:16;9.85;;;3.85;;
63818;SDS011;49970;54.976;73.248;2023-05-29T02:47:43;19.60;;;4.35;;
63818;SDS011;49970;54.976;73.248;2023-05-29T02:50:09;11.80;;;4.43;;
63818;SDS011;49970;54.976;73.248;2023-05-29T02:53:06;9.30;;;3.67;;
63818;SDS011;49970;54.976;73.248;2023-05-29T02:55:36;17.00;;;4.00;;
63818;SDS011;49970;54.976;73.248;2023-05-29T02:58:07;12.68;;;4.22;;
63818;SDS011;49970;54.976;73.248;2023-05-29T03:00:38;13.55;;;4.45;;
63818;SDS011;49970;54.976;73.248;2023-05-29T03:04:29;11.32;;;3.95;;
63818;SDS011;49970;54.976;73.248;2023-05-29T03:08:20;18.13;;;4.75;;
63818;SDS011;49970;54.976;73.248;2023-05-29T03:11:49;16.05;;;4.43;;
63818;SDS011;49970;54.976;73.248;2023-05-29T03:14:16;15.05;;;3.95;;
63818;SDS011;49970;54.976;73.248;2023-05-29T03:16:44;22.42;;;4.43;;
63818;SDS011;49970;54.976;73.248;2023-05-29T03:19:11;12.00;;;3.80;;
63818;SDS011;49970;54.976;73.248;2023-05-29T03:21:37;11.77;;;3.95;;
63818;SDS011;49970;54.976;73.248;2023-05-29T03:24:04;35.58;;;4.80;;
63818;SDS011;49970;54.976;73.248;2023-05-29T03:26:33;18.30;;;4.32;;
63818;SDS011;49970;54.976;73.248;2023-05-29T03:28:59;24.92;;;3.97;;
63818;SDS011;49970;54.976;73.248;2023-05-29T03:31:32;12.50;;;3.60;;
63818;SDS011;49970;54.976;73.248;2023-05-29T03:35:02;26.15;;;3.92;;
63818;SDS011;49970;54.976;73.248;2023-05-29T03:37:29;34.17;;;3.90;;
63818;SDS011;49970;54.976;73.248;2023-05-29T03:39:56;26.95;;;4.68;;
63818;SDS011;49970;54.976;73.248;2023-05-29T03:42:23;17.80;;;4.13;;
63818;SDS011;49970;54.976;73.248;2023-05-29T03:44:51;11.32;;;3.80;;
63818;SDS011;49970;54.976;73.248;2023-05-29T03:47:17;12.70;;;3.92;;
63818;SDS011;49970;54.976;73.248;2023-05-29T03:49:44;8.30;;;3.70;;
63818;SDS011;49970;54.976;73.248;2023-05-29T03:52:11;11.65;;;3.75;;
63818;SDS011;49970;54.976;73.248;2023-05-29T03:54:37;11.65;;;3.90;;
63818;SDS011;49970;54.976;73.248;2023-05-29T03:57:05;11.85;;;4.03;;
63818;SDS011;49970;54.976;73.248;2023-05-29T03:59:32;11.75;;;4.05;;
63818;SDS011;49970;54.976;73.248;2023-05-29T04:01:58;14.52;;;4.40;;
63818;SDS011;49970;54.976;73.248;2023-05-29T04:04:25;12.40;;;4.22;;
63818;SDS011;49970;54.976;73.248;2023-05-29T04:06:53;6.97;;;3.50;;
63818;SDS011;49970;54.976;73.248;2023-05-29T04:12:23;9.10;;;4.20;;
63818;SDS011;49970;54.976;73.248;2023-05-29T04:16:09;14.85;;;4.80;;
63818;SDS011;49970;54.976;73.248;2023-05-29T04:18:37;19.77;;;4.97;;
63818;SDS011;49970;54.976;73.248;2023-05-29T04:21:03;21.98;;;5.65;;
63818;SDS011;49970;54.976;73.248;2023-05-29T04:24:54;15.90;;;5.47;;
63818;SDS011;49970;54.976;73.248;2023-05-29T04:27:20;13.05;;;5.20;;
63818;SDS011;49970;54.976;73.248;2023-05-29T04:29:47;17.05;;;4.38;;
63818;SDS011;49970;54.976;73.248;2023-05-29T04:32:13;6.50;;;3.58;;
63818;SDS011;49970;54.976;73.248;2023-05-29T04:34:40;8.75;;;4.60;;
63818;SDS011;49970;54.976;73.248;2023-05-29T04:37:11;21.25;;;4.95;;
63818;SDS011;49970;54.976;73.248;2023-05-29T04:39:40;6.93;;;4.40;;
63818;SDS011;49970;54.976;73.248;2023-05-29T04:42:09;13.30;;;3.53;;
63818;SDS011;49970;54.976;73.248;2023-05-29T04:44:35;12.75;;;3.60;;
63818;SDS011;49970;54.976;73.248;2023-05-29T04:47:02;11.80;;;4.07;;
63818;SDS011;49970;54.976;73.248;2023-05-29T04:50:54;16.15;;;4.03;;
63818;SDS011;49970;54.976;73.248;2023-05-29T04:58:42;13.27;;;4.45;;
63818;SDS011;49970;54.976;73.248;2023-05-29T05:02:33;9.77;;;4.18;;
63818;SDS011;49970;54.976;73.248;2023-05-29T05:06:24;16.70;;;4.10;;
63818;SDS011;49970;54.976;73.248;2023-05-29T05:09:53;24.13;;;4.80;;
63818;SDS011;49970;54.976;73.248;2023-05-29T05:12:24;25.27;;;4.55;;
63818;SDS011;49970;54.976;73.248;2023-05-29T05:16:14;24.85;;;5.47;;
63818;SDS011;49970;54.976;73.248;2023-05-29T05:20:03;17.23;;;5.30;;
63818;SDS011;49970;54.976;73.248;2023-05-29T05:24:19;20.88;;;5.45;;
63818;SDS011;49970;54.976;73.248;2023-05-29T05:26:46;16.02;;;6.20;;
63818;SDS011;49970;54.976;73.248;2023-05-29T05:29:13;18.63;;;6.13;;
63818;SDS011;49970;54.976;73.248;2023-05-29T05:31:40;16.17;;;6.70;;
63818;SDS011;49970;54.976;73.248;2023-05-29T05:34:07;18.67;;;6.25;;
63818;SDS011;49970;54.976;73.248;2023-05-29T05:36:34;25.20;;;7.15;;
63818;SDS011;49970;54.976;73.248;2023-05-29T05:40:05;21.75;;;7.28;;
63818;SDS011;49970;54.976;73.248;2023-05-29T05:42:34;22.88;;;8.25;;
63818;SDS011;49970;54.976;73.248;2023-05-29T05:45:06;24.30;;;8.27;;
63818;SDS011;49970;54.976;73.248;2023-05-29T05:47:33;21.50;;;8.50;;
63818;SDS011;49970;54.976;73.248;2023-05-29T05:49:59;24.70;;;8.52;;
63818;SDS011;49970;54.976;73.248;2023-05-29T05:52:26;42.03;;;8.30;;
63818;SDS011;49970;54.976;73.248;2023-05-29T05:54:56;28.15;;;9.32;;
63818;SDS011;49970;54.976;73.248;2023-05-29T05:57:23;25.67;;;8.43;;
63818;SDS011;49970;54.976;73.248;2023-05-29T05:59:49;46.00;;;11.02;;
63818;SDS011;49970;54.976;73.248;2023-05-29T06:02:16;39.80;;;10.25;;
63818;SDS011;49970;54.976;73.248;2023-05-29T06:04:42;26.70;;;9.80;;
63818;SDS011;49970;54.976;73.248;2023-05-29T06:07:10;33.08;;;8.90;;
63818;SDS011;49970;54.976;73.248;2023-05-29T06:09:36;31.77;;;9.82;;
63818;SDS011;49970;54.976;73.248;2023-05-29T06:12:03;89.07;;;9.70;;
63818;SDS011;49970;54.976;73.248;2023-05-29T06:15:59;21.40;;;7.45;;
63818;SDS011;49970;54.976;73.248;2023-05-29T06:19:01;19.23;;;7.30;;
63818;SDS011;49970;54.976;73.248;2023-05-29T06:21:31;29.63;;;8.63;;
63818;SDS011;49970;54.976;73.248;2023-05-29T06:23:57;21.30;;;8.13;;
63818;SDS011;49970;54.976;73.248;2023-05-29T06:26:25;18.77;;;7.22;;
63818;SDS011;49970;54.976;73.248;2023-05-29T06:28:53;23.85;;;7.90;;
63818;SDS011;49970;54.976;73.248;2023-05-29T06:31:19;15.55;;;7.53;;
63818;SDS011;49970;54.976;73.248;2023-05-29T06:33:47;20.90;;;7.30;;
63818;SDS011;49970;54.976;73.248;2023-05-29T06:36:14;18.98;;;7.07;;
63818;SDS011;49970;54.976;73.248;2023-05-29T06:38:45;20.38;;;7.05;;
63818;SDS011;49970;54.976;73.248;2023-05-29T06:42:25;20.45;;;6.30;;
63818;SDS011;49970;54.976;73.248;2023-05-29T06:46:11;23.83;;;7.00;;
63818;SDS011;49970;54.976;73.248;2023-05-29T06:48:37;15.18;;;7.10;;
63818;SDS011;49970;54.976;73.248;2023-05-29T06:51:03;22.48;;;7.43;;
63818;SDS011;49970;54.976;73.248;2023-05-29T06:54:00;16.75;;;6.55;;
63818;SDS011;49970;54.976;73.248;2023-05-29T06:56:28;31.08;;;7.32;;
63818;SDS011;49970;54.976;73.248;2023-05-29T06:58:56;21.60;;;6.78;;
63818;SDS011;49970;54.976;73.248;2023-05-29T07:01:22;24.65;;;5.63;;
63818;SDS011;49970;54.976;73.248;2023-05-29T07:03:57;20.75;;;5.90;;
63818;SDS011;49970;54.976;73.248;2023-05-29T07:06:59;21.42;;;6.20;;
63818;SDS011;49970;54.976;73.248;2023-05-29T07:09:26;18.15;;;6.25;;
63818;SDS011;49970;54.976;73.248;2023-05-29T07:12:03;13.45;;;5.60;;
63818;SDS011;49970;54.976;73.248;2023-05-29T07:14:30;18.67;;;5.28;;
63818;SDS011;49970;54.976;73.248;2023-05-29T07:16:58;16.67;;;5.10;;
63818;SDS011;49970;54.976;73.248;2023-05-29T07:19:25;8.50;;;5.30;;
63818;SDS011;49970;54.976;73.248;2023-05-29T07:21:52;9.95;;;5.25;;
63818;SDS011;49970;54.976;73.248;2023-05-29T07:24:21;15.98;;;5.45;;
63818;SDS011;49970;54.976;73.248;2023-05-29T07:26:49;12.68;;;5.82;;
63818;SDS011;49970;54.976;73.248;2023-05-29T07:29:35;22.60;;;6.00;;
63818;SDS011;49970;54.976;73.248;2023-05-29T07:32:01;15.93;;;5.85;;
63818;SDS011;49970;54.976;73.248;2023-05-29T07:34:29;17.20;;;6.05;;
63818;SDS011;49970;54.976;73.248;2023-05-29T07:36:56;26.98;;;6.07;;
63818;SDS011;49970;54.976;73.248;2023-05-29T07:39:33;15.32;;;6.15;;
63818;SDS011;49970;54.976;73.248;2023-05-29T07:42:07;28.33;;;6.05;;
63818;SDS011;49970;54.976;73.248;2023-05-29T07:44:35;27.20;;;5.35;;
63818;SDS011;49970;54.976;73.248;2023-05-29T07:47:01;22.83;;;6.40;;
63818;SDS011;49970;54.976;73.248;2023-05-29T07:49:36;18.58;;;6.10;;
63818;SDS011;49970;54.976;73.248;2023-05-29T07:52:03;20.48;;;5.18;;
63818;SDS011;49970;54.976;73.248;2023-05-29T07:54:30;20.80;;;5.15;;
63818;SDS011;49970;54.976;73.248;2023-05-29T07:56:59;14.35;;;5.88;;
63818;SDS011;49970;54.976;73.248;2023-05-29T07:59:26;13.85;;;5.18;;
63818;SDS011;49970;54.976;73.248;2023-05-29T08:01:52;7.90;;;5.00;;
63818;SDS011;49970;54.976;73.248;2023-05-29T08:04:38;13.82;;;5.45;;
63818;SDS011;49970;54.976;73.248;2023-05-29T08:07:05;26.73;;;6.28;;
63818;SDS011;49970;54.976;73.248;2023-05-29T08:09:31;7.05;;;4.10;;
63818;SDS011;49970;54.976;73.248;2023-05-29T08:11:58;12.57;;;4.38;;
63818;SDS011;49970;54.976;73.248;2023-05-29T08:14:26;25.10;;;4.20;;
63818;SDS011;49970;54.976;73.248;2023-05-29T08:16:53;43.28;;;5.47;;
63818;SDS011;49970;54.976;73.248;2023-05-29T08:19:19;9.25;;;4.57;;
63818;SDS011;49970;54.976;73.248;2023-05-29T08:21:46;19.83;;;5.30;;
63818;SDS011;49970;54.976;73.248;2023-05-29T08:24:12;16.30;;;4.65;;
63818;SDS011;49970;54.976;73.248;2023-05-29T08:26:38;21.75;;;5.00;;
63818;SDS011;49970;54.976;73.248;2023-05-29T08:29:04;15.68;;;4.20;;
63818;SDS011;49970;54.976;73.248;2023-05-29T08:31:31;9.82;;;4.57;;
63818;SDS011;49970;54.976;73.248;2023-05-29T08:33:57;22.67;;;4.32;;
63818;SDS011;49970;54.976;73.248;2023-05-29T08:36:24;23.90;;;4.97;;
63818;SDS011;49970;54.976;73.248;2023-05-29T08:38:51;16.95;;;5.18;;
63818;SDS011;49970;54.976;73.248;2023-05-29T08:42:50;30.52;;;5.57;;
63818;SDS011;49970;54.976;73.248;2023-05-29T08:46:24;23.85;;;5.50;;
63818;SDS011;49970;54.976;73.248;2023-05-29T08:48:52;30.23;;;5.60;;
63818;SDS011;49970;54.976;73.248;2023-05-29T08:51:22;14.50;;;5.35;;
63818;SDS011;49970;54.976;73.248;2023-05-29T08:53:55;18.58;;;5.05;;
63818;SDS011;49970;54.976;73.248;2023-05-29T08:56:22;12.20;;;5.13;;
63818;SDS011;49970;54.976;73.248;2023-05-29T08:58:49;15.77;;;5.57;;
63818;SDS011;49970;54.976;73.248;2023-05-29T09:01:18;16.75;;;5.22;;
63818;SDS011;49970;54.976;73.248;2023-05-29T09:03:46;33.55;;;4.68;;
63818;SDS011;49970;54.976;73.248;2023-05-29T09:06:13;19.77;;;5.68;;
63818;SDS011;49970;54.976;73.248;2023-05-29T09:08:39;21.95;;;5.47;;
63818;SDS011;49970;54.976;73.248;2023-05-29T09:11:08;7.63;;;4.95;;
63818;SDS011;49970;54.976;73.248;2023-05-29T09:13:34;12.55;;;4.75;;
63818;SDS011;49970;54.976;73.248;2023-05-29T09:16:03;22.02;;;5.40;;
63818;SDS011;49970;54.976;73.248;2023-05-29T09:18:30;21.15;;;5.22;;
63818;SDS011;49970;54.976;73.248;2023-05-29T09:20:57;20.13;;;4.90;;
63818;SDS011;49970;54.976;73.248;2023-05-29T09:23:25;17.77;;;5.50;;
63818;SDS011;49970;54.976;73.248;2023-05-29T09:25:56;34.35;;;6.28;;
63818;SDS011;49970;54.976;73.248;2023-05-29T09:28:45;24.00;;;5.78;;
63818;SDS011;49970;54.976;73.248;2023-05-29T09:31:16;14.43;;;5.55;;
63818;SDS011;49970;54.976;73.248;2023-05-29T09:33:47;18.58;;;5.25;;
63818;SDS011;49970;54.976;73.248;2023-05-29T09:36:23;11.15;;;5.45;;
63818;SDS011;49970;54.976;73.248;2023-05-29T09:38:50;25.88;;;5.05;;
63818;SDS011;49970;54.976;73.248;2023-05-29T09:41:21;9.57;;;4.45;;
63818;SDS011;49970;54.976;73.248;2023-05-29T09:43:51;17.63;;;5.85;;
63818;SDS011;49970;54.976;73.248;2023-05-29T09:46:20;13.45;;;5.20;;
63818;SDS011;49970;54.976;73.248;2023-05-29T09:48:46;23.17;;;5.50;;
63818;SDS011;49970;54.976;73.248;2023-05-29T09:52:23;14.05;;;5.32;;
63818;SDS011;49970;54.976;73.248;2023-05-29T09:56:13;19.92;;;5.40;;
63818;SDS011;49970;54.976;73.248;2023-05-29T09:58:43;31.65;;;6.05;;
63818;SDS011;49970;54.976;73.248;2023-05-29T10:01:12;26.75;;;5.65;;
63818;SDS011;49970;54.976;73.248;2023-05-29T10:03:39;31.02;;;5.57;;
63818;SDS011;49970;54.976;73.248;2023-05-29T10:06:05;24.80;;;4.97;;
63818;SDS011;49970;54.976;73.248;2023-05-29T10:08:34;18.75;;;5.78;;
63818;SDS011;49970;54.976;73.248;2023-05-29T10:11:03;15.95;;;5.63;;
63818;SDS011;49970;54.976;73.248;2023-05-29T10:13:36;26.33;;;6.18;;
63818;SDS011;49970;54.976;73.248;2023-05-29T10:16:08;23.05;;;6.97;;
63818;SDS011;49970;54.976;73.248;2023-05-29T10:18:39;24.17;;;6.95;;
63818;SDS011;49970;54.976;73.248;2023-05-29T10:21:08;32.47;;;7.13;;
63818;SDS011;49970;54.976;73.248;2023-05-29T10:23:38;24.83;;;7.70;;
63818;SDS011;49970;54.976;73.248;2023-05-29T10:26:09;41.85;;;7.50;;
63818;SDS011;49970;54.976;73.248;2023-05-29T10:28:40;51.78;;;7.07;;
63818;SDS011;49970;54.976;73.248;2023-05-29T10:36:25;23.10;;;5.95;;
63818;SDS011;49970;54.976;73.248;2023-05-29T10:38:56;16.40;;;5.97;;
63818;SDS011;49970;54.976;73.248;2023-05-29T10:43:56;33.45;;;6.82;;
63818;SDS011;49970;54.976;73.248;2023-05-29T10:49:21;21.58;;;6.18;;
63818;SDS011;49970;54.976;73.248;2023-05-29T10:51:49;31.15;;;6.63;;
63818;SDS011;49970;54.976;73.248;2023-05-29T10:55:36;20.60;;;5.43;;
63818;SDS011;49970;54.976;73.248;2023-05-29T10:58:06;40.90;;;6.45;;
63818;SDS011;49970;54.976;73.248;2023-05-29T11:00:40;29.23;;;6.32;;
63818;SDS011;49970;54.976;73.248;2023-05-29T11:03:22;25.88;;;6.63;;
63818;SDS011;49970;54.976;73.248;2023-05-29T11:11:01;17.17;;;5.40;;
63818;SDS011;49970;54.976;73.248;2023-05-29T11:13:32;33.42;;;6.03;;
63818;SDS011;49970;54.976;73.248;2023-05-29T11:16:12;16.73;;;5.43;;
63818;SDS011;49970;54.976;73.248;2023-05-29T11:18:44;23.80;;;5.75;;
63818;SDS011;49970;54.976;73.248;2023-05-29T11:24:27;13.20;;;5.68;;
63818;SDS011;49970;54.976;73.248;2023-05-29T11:28:14;20.85;;;5.72;;
63818;SDS011;49970;54.976;73.248;2023-05-29T11:30:42;20.95;;;5.63;;
63818;SDS011;49970;54.976;73.248;2023-05-29T11:33:27;17.73;;;6.70;;
63818;SDS011;49970;54.976;73.248;2023-05-29T11:39:47;11.55;;;5.78;;
63818;SDS011;49970;54.976;73.248;2023-05-29T11:42:13;18.98;;;5.85;;
63818;SDS011;49970;54.976;73.248;2023-05-29T11:45:14;36.05;;;6.55;;
63818;SDS011;49970;54.976;73.248;2023-05-29T11:47:57;18.23;;;5.85;;
63818;SDS011;49970;54.976;73.248;2023-05-29T11:50:42;18.67;;;5.82;;
63818;SDS011;49970;54.976;73.248;2023-05-29T11:53:11;29.15;;;5.70;;
63818;SDS011;49970;54.976;73.248;2023-05-29T11:56:43;20.23;;;6.07;;
63818;SDS011;49970;54.976;73.248;2023-05-29T11:59:13;25.20;;;6.88;;
63818;SDS011;49970;54.976;73.248;2023-05-29T12:03:03;26.40;;;6.95;;
63818;SDS011;49970;54.976;73.248;2023-05-29T12:05:49;21.67;;;6.85;;
63818;SDS011;49970;54.976;73.248;2023-05-29T12:08:20;29.83;;;7.43;;
63818;SDS011;49970;54.976;73.248;2023-05-29T12:11:50;26.20;;;7.25;;
63818;SDS011;49970;54.976;73.248;2023-05-29T12:14:18;13.40;;;5.95;;
63818;SDS011;49970;54.976;73.248;2023-05-29T12:16:46;27.85;;;6.30;;
63818;SDS011;49970;54.976;73.248;2023-05-29T12:19:12;22.13;;;6.93;;
63818;SDS011;49970;54.976;73.248;2023-05-29T12:21:42;31.90;;;6.38;;
63818;SDS011;49970;54.976;73.248;2023-05-29T12:24:11;47.42;;;6.85;;
63818;SDS011;49970;54.976;73.248;2023-05-29T12:26:37;21.63;;;6.90;;
63818;SDS011;49970;54.976;73.248;2023-05-29T12:29:39;36.67;;;7.45;;
63818;SDS011;49970;54.976;73.248;2023-05-29T12:32:15;23.15;;;7.25;;
63818;SDS011;49970;54.976;73.248;2023-05-29T12:35:15;59.17;;;6.90;;
63818;SDS011;49970;54.976;73.248;2023-05-29T12:38:51;12.60;;;6.88;;
63818;SDS011;49970;54.976;73.248;2023-05-29T12:42:42;21.05;;;7.53;;
63818;SDS011;49970;54.976;73.248;2023-05-29T12:45:54;21.05;;;8.15;;
63818;SDS011;49970;54.976;73.248;2023-05-29T12:48:41;29.27;;;8.57;;
63818;SDS011;49970;54.976;73.248;2023-05-29T12:52:31;31.67;;;7.50;;
63818;SDS011;49970;54.976;73.248;2023-05-29T12:55:42;52.95;;;10.25;;
63818;SDS011;49970;54.976;73.248;2023-05-29T12:58:11;38.55;;;10.15;;
63818;SDS011;49970;54.976;73.248;2023-05-29T13:02:26;30.75;;;9.15;;
63818;SDS011;49970;54.976;73.248;2023-05-29T13:06:17;54.55;;;11.57;;
63818;SDS011;49970;54.976;73.248;2023-05-29T13:10:08;52.30;;;10.00;;
63818;SDS011;49970;54.976;73.248;2023-05-29T13:12:35;38.38;;;8.63;;
63818;SDS011;49970;54.976;73.248;2023-05-29T13:15:01;34.45;;;9.55;;
63818;SDS011;49970;54.976;73.248;2023-05-29T13:17:28;23.85;;;8.63;;
63818;SDS011;49970;54.976;73.248;2023-05-29T13:19:56;28.00;;;9.07;;
63818;SDS011;49970;54.976;73.248;2023-05-29T13:22:22;26.63;;;8.15;;
63818;SDS011;49970;54.976;73.248;2023-05-29T13:24:49;26.80;;;8.32;;
63818;SDS011;49970;54.976;73.248;2023-05-29T13:27:15;31.88;;;8.90;;
63818;SDS011;49970;54.976;73.248;2023-05-29T13:29:42;30.10;;;9.60;;
63818;SDS011;49970;54.976;73.248;2023-05-29T13:32:09;49.60;;;8.60;;
63818;SDS011;49970;54.976;73.248;2023-05-29T13:34:35;32.83;;;7.90;;
63818;SDS011;49970;54.976;73.248;2023-05-29T13:38:24;21.13;;;7.85;;
63818;SDS011;49970;54.976;73.248;2023-05-29T13:46:29;15.90;;;7.50;;
63818;SDS011;49970;54.976;73.248;2023-05-29T13:50:22;22.10;;;8.75;;
63818;SDS011;49970;54.976;73.248;2023-05-29T13:54:15;19.63;;;9.48;;
63818;SDS011;49970;54.976;73.248;2023-05-29T13:58:04;23.85;;;10.35;;
63818;SDS011;49970;54.976;73.248;2023-05-29T14:05:50;34.53;;;9.35;;
63818;SDS011;49970;54.976;73.248;2023-05-29T14:08:16;19.60;;;9.27;;
63818;SDS011;49970;54.976;73.248;2023-05-29T14:10:42;23.17;;;9.88;;
63818;SDS011;49970;54.976;73.248;2023-05-29T14:13:08;32.45;;;9.85;;
63818;SDS011;49970;54.976;73.248;2023-05-29T14:15:35;39.42;;;10.68;;
63818;SDS011;49970;54.976;73.248;2023-05-29T14:18:01;35.90;;;10.32;;
63818;SDS011;49970;54.976;73.248;2023-05-29T14:20:28;31.83;;;11.48;;
63818;SDS011;49970;54.976;73.248;2023-05-29T14:22:54;27.23;;;10.95;;
63818;SDS011;49970;54.976;73.248;2023-05-29T14:25:21;28.90;;;10.38;;
63818;SDS011;49970;54.976;73.248;2023-05-29T14:27:56;23.88;;;10.07;;
63818;SDS011;49970;54.976;73.248;2023-05-29T14:30:23;27.23;;;10.43;;
63818;SDS011;49970;54.976;73.248;2023-05-29T14:32:49;42.97;;;12.65;;
63818;SDS011;49970;54.976;73.248;2023-05-29T14:35:15;39.25;;;14.70;;
63818;SDS011;49970;54.976;73.248;2023-05-29T14:37:41;39.75;;;13.18;;
63818;SDS011;49970;54.976;73.248;2023-05-29T14:40:08;59.13;;;16.80;;
63818;SDS011;49970;54.976;73.248;2023-05-29T14:42:34;37.08;;;13.48;;
63818;SDS011;49970;54.976;73.248;2023-05-29T14:45:01;35.80;;;11.93;;
63818;SDS011;49970;54.976;73.248;2023-05-29T14:47:28;20.08;;;10.45;;
63818;SDS011;49970;54.976;73.248;2023-05-29T14:49:55;31.55;;;11.15;;
63818;SDS011;49970;54.976;73.248;2023-05-29T14:52:21;32.40;;;9.98;;
63818;SDS011;49970;54.976;73.248;2023-05-29T14:54:47;42.78;;;9.73;;
63818;SDS011;49970;54.976;73.248;2023-05-29T14:57:13;23.77;;;8.48;;
63818;SDS011;49970;54.976;73.248;2023-05-29T14:59:40;41.17;;;9.30;;
63818;SDS011;49970;54.976;73.248;2023-05-29T15:02:06;18.48;;;9.55;;
63818;SDS011;49970;54.976;73.248;2023-05-29T15:04:32;16.90;;;10.82;;
63818;SDS011;49970;54.976;73.248;2023-05-29T15:06:58;26.40;;;12.02;;
63818;SDS011;49970;54.976;73.248;2023-05-29T15:09:25;51.22;;;14.82;;
63818;SDS011;49970;54.976;73.248;2023-05-29T15:11:51;31.75;;;13.60;;
63818;SDS011;49970;54.976;73.248;2023-05-29T15:14:18;31.90;;;13.23;;
63818;SDS011;49970;54.976;73.248;2023-05-29T15:16:44;19.95;;;12.52;;
63818;SDS011;49970;54.976;73.248;2023-05-29T15:19:11;22.15;;;12.35;;
63818;SDS011;49970;54.976;73.248;2023-05-29T15:21:37;20.55;;;12.60;;
63818;SDS011;49970;54.976;73.248;2023-05-29T15:24:03;36.20;;;12.55;;
63818;SDS011;49970;54.976;73.248;2023-05-29T15:26:30;20.98;;;11.05;;
63818;SDS011;49970;54.976;73.248;2023-05-29T15:28:56;30.85;;;11.23;;
63818;SDS011;49970;54.976;73.248;2023-05-29T15:31:23;22.95;;;11.35;;
63818;SDS011;49970;54.976;73.248;2023-05-29T15:33:49;23.70;;;11.90;;
63818;SDS011;49970;54.976;73.248;2023-05-29T15:36:15;22.65;;;11.60;;
63818;SDS011;49970;54.976;73.248;2023-05-29T15:38:43;18.80;;;11.10;;
63818;SDS011;49970;54.976;73.248;2023-05-29T15:41:09;24.17;;;10.63;;
63818;SDS011;49970;54.976;73.248;2023-05-29T15:43:35;26.05;;;10.75;;
63818;SDS011;49970;54.976;73.248;2023-05-29T15:46:02;16.55;;;11.00;;
63818;SDS011;49970;54.976;73.248;2023-05-29T15:48:29;17.75;;;10.32;;
63818;SDS011;49970;54.976;73.248;2023-05-29T15:50:55;19.33;;;10.98;;
63818;SDS011;49970;54.976;73.248;2023-05-29T15:53:22;18.77;;;10.23;;
63818;SDS011;49970;54.976;73.248;2023-05-29T15:55:48;20.10;;;10.55;;
63818;SDS011;49970;54.976;73.248;2023-05-29T15:58:14;27.42;;;8.82;;
63818;SDS011;49970;54.976;73.248;2023-05-29T16:00:40;20.38;;;9.30;;
63818;SDS011;49970;54.976;73.248;2023-05-29T16:03:07;18.30;;;9.02;;
63818;SDS011;49970;54.976;73.248;2023-05-29T16:05:34;22.10;;;9.68;;
63818;SDS011;49970;54.976;73.248;2023-05-29T16:08:01;18.85;;;10.00;;
63818;SDS011;49970;54.976;73.248;2023-05-29T16:11:51;17.85;;;9.77;;